Nearby METAR Reports

 

ENCN - Kristiansand/Kje, Norway
Distance from station: N 17km
Updated: 07/07/2020 17:20
Few Clouds
Few Clouds
 Wind van W
Wind: W 22 km/h
Temperatuur: 15°C
Dauwpunt: 4°C
Vochtigheid: 48%
Barometer: 1006 hPa
Clouds: Few Clouds
Visibility: 10 km
Cloud details: Few Clouds 1372 m
Few Clouds 1372 m
2020/07/07 15:20 ENCN 071520Z 28012KT 240V330 9999 FEW045TCU FEW045 15/04 Q1006
EKSN - Sindal Airport, Denmark
Distance from station: OZO 145km
Updated: 07/07/2020 14:50
NOT Current
Meestal bewolkt
Meestal bewolkt
 Wind van WZW
Wind: WZW 35 km/h, Windvlaag: 54 km/h
Temperatuur: 13°C
Dauwpunt: 8°C
Vochtigheid: 72%
Barometer: 1008 hPa
Clouds: Meestal bewolkt
Visibility: 10 km
Cloud details: Few Clouds 762 m
Meestal bewolkt 2560 m
2020/07/07 12:50 EKSN 071250Z 25019G29KT 9999 FEW025 BKN084 13/08 Q1008
 
EKYT - Alborg, Denmark
Distance from station: ZO 153km
Updated: 07/07/2020 17:20
Gedeeltelijk bewolkt
Gedeeltelijk bewolkt
 Wind van W
Wind: W 33 km/h
Temperatuur: 14°C
Dauwpunt: 8°C
Vochtigheid: 67%
Barometer: 1009 hPa
Clouds: Gedeeltelijk bewolkt
Visibility: 10 km
Cloud details: Few Clouds 914 m
Gedeeltelijk bewolkt 2896 m
2020/07/07 15:20 EKYT 071520Z AUTO 27018KT 9999 FEW030/// SCT095/// 14/08 Q1009
ENSN - Skien/Geiterygge, Norway
Distance from station: NO 153km
Updated: 09/11/2015 09:50
NOT Current
Helder
Helder
 Wind van ZZW
Wind: ZZW 19 km/h, Windvlaag: 41 km/h
Temperatuur: 7°C
Wind Chill: 4°C
Dauwpunt: 3°C
Vochtigheid: 76%
Barometer: 1000 hPa
Overzicht: Helder
Visibility: greater than 10 km
2015/11/09 08:50 ENSN 090850Z 20010G22KT 150V240 CAVOK 07/03 Q1000
 
ENZV - Stavanger/Sola(A, Norway
Distance from station: NW 166km
Updated: 07/07/2020 17:20
Gedeeltelijk bewolkt
Gedeeltelijk bewolkt
 Wind van WNW
Wind: WNW 30 km/h
Temperatuur: 14°C
Dauwpunt: 6°C
Vochtigheid: 59%
Barometer: 1009 hPa
Clouds: Gedeeltelijk bewolkt
Visibility: 10 km
Cloud details: Gedeeltelijk bewolkt 914 m
2020/07/07 15:20 ENZV 071520Z 30016KT 9999 SCT030TCU 14/06 Q1009 NOSIG
ENNO - Notodden, Norway
Distance from station: NNO 182km
Updated: 07/07/2020 16:50
Nearby showers, Meestal bewolkt
Nearby showers, Meestal bewolkt
 Wind van OZO
Wind: OZO 17 km/h
Temperatuur: 13°C
Dauwpunt: 6°C
Vochtigheid: 63%
Barometer: 1003 hPa
Overzicht: Nearby Showers
Clouds: Meestal bewolkt
Visibility: 10 km
Cloud details: Few Clouds 1524 m
Meestal bewolkt 1981 m
2020/07/07 14:50 ENNO 071450Z 11009KT 9999 VCSH FEW050 BKN065 13/06 Q1003
 
ENTO - Torp (civ/Nor-Af, Norway
Distance from station: NO 183km
Updated: 07/07/2020 17:20
Nearby showers, Few clouds
Nearby showers, Few clouds
 Wind van varies
Wind: varies 4 km/h
Temperatuur: 12°C
Dauwpunt: 5°C
Vochtigheid: 63%
Barometer: 1004 hPa
Overzicht: Nearby Showers
Clouds: Few Clouds
Visibility: 10 km
Cloud details: Few Clouds 1219 m
Few Clouds 1524 m
2020/07/07 15:20 ENTO 071520Z VRB02KT 9999 VCSH FEW040CB FEW050 12/05 Q1004 TEMPO SHRA
EKKA - Karup (dan-Afb), Denmark
Distance from station: ZZO 209km
Updated: 07/07/2020 17:20
Meestal bewolkt
Meestal bewolkt
 Wind van W
Wind: W 35 km/h
Temperatuur: 15°C
Dauwpunt: 5°C
Vochtigheid: 51%
Barometer: 1011 hPa
Clouds: Meestal bewolkt
Visibility: 10 km
Cloud details: Meestal bewolkt 1158 m
2020/07/07 15:20 EKKA 071520Z AUTO 28019KT 9999 BKN038/// 15/05 Q1011
 
ENHD - Haugesund/Karmoy, Norway
Distance from station: NW 216km
Updated: 07/07/2020 17:20
Helder
Helder
 Wind van NW
Wind: NW 22 km/h
Temperatuur: 13°C
Dauwpunt: 6°C
Vochtigheid: 63%
Barometer: 1009 hPa
Clouds: Helder
Visibility: 10 km
2020/07/07 15:20 ENHD 071520Z AUTO 31012KT 9999 NCD 13/06 Q1009
ENRY - Rygge (nor-Afb), Norway
Distance from station: NO 216km
Updated: 07/07/2020 17:20
Lichte regen, Showers, Gedeeltelijk bewolkt
Lichte regen, Showers, Gedeeltelijk bewolkt
 Wind van N
Wind: N 7 km/h
Temperatuur: 11°C
Dauwpunt: 6°C
Vochtigheid: 72%
Barometer: 1004 hPa
Overzicht: Lichte regen, Showers
Clouds: Gedeeltelijk bewolkt
Visibility: 10 km
Cloud details: Few Clouds 518 m
Gedeeltelijk bewolkt 1737 m
2020/07/07 15:20 ENRY 071520Z 36004KT 300V040 9999 -SHRA FEW017 SCT057 11/06 Q1004
 
ESGP - Goteborg/Save (a, Sweden
Distance from station: O 230km
Updated: 02/01/2017 11:20
NOT Current
Helder
Helder
 Wind van calm
Wind: Kalm
Temperatuur: -2°C
Dauwpunt: -4°C
Vochtigheid: 86%
Barometer: 1012 hPa
Clouds: Helder
Visibility: 10 km
2017/01/02 10:20 ESGP 021020Z AUTO 00000KT 9999 NCD M02/M04 Q1012
EKVJ - Stauning Airport, Denmark
Distance from station: Z 233km
Updated: 07/07/2020 15:50
NOT Current
Nearby showers, Gedeeltelijk bewolkt
Nearby showers, Gedeeltelijk bewolkt
 Wind van WNW
Wind: WNW 24 km/h
Temperatuur: 15°C
Dauwpunt: 12°C
Vochtigheid: 82%
Barometer: 1012 hPa
Overzicht: Nearby Showers
Clouds: Gedeeltelijk bewolkt
Visibility: 10 km
Cloud details: Few Clouds 610 m
Gedeeltelijk bewolkt 762 m
2020/07/07 13:50 EKVJ 071350Z 30013KT 9999 VCSH FEW020TCU SCT025 15/12 Q1012
 
ENSO - Stord/Soerstokke, Norway
Distance from station: NW 246km
Updated: 07/07/2020 14:50
NOT Current
Gedeeltelijk bewolkt
Gedeeltelijk bewolkt
 Wind van NW
Wind: NW 19 km/h
Temperatuur: 11°C
Dauwpunt: 8°C
Vochtigheid: 82%
Barometer: 1008 hPa
Clouds: Gedeeltelijk bewolkt
Visibility: 10 km
Cloud details: Few Clouds 610 m
Gedeeltelijk bewolkt 914 m
2020/07/07 12:50 ENSO 071250Z 31010KT 270V350 9999 FEW020TCU SCT030 11/08 Q1008
EKAH - Tirstrup (civ/Mi, Denmark
Distance from station: ZO 252km
Updated: 07/07/2020 17:20
Meestal bewolkt
Meestal bewolkt
 Wind van W
Wind: W 30 km/h, Windvlaag: 50 km/h
Temperatuur: 16°C
Dauwpunt: 8°C
Vochtigheid: 59%
Barometer: 1011 hPa
Clouds: Meestal bewolkt
Visibility: 10 km
Cloud details: Meestal bewolkt 1280 m
2020/07/07 15:20 EKAH 071520Z AUTO 27016G27KT 9999NDV BKN042/// 16/08 Q1011
 
ESGT - Trollhattan (pvt, Sweden
Distance from station: O 255km
Updated: 07/07/2020 17:20
Meestal bewolkt
Meestal bewolkt
 Wind van ZW
Wind: ZW 37 km/h
Temperatuur: 14°C
Dauwpunt: 4°C
Vochtigheid: 51%
Barometer: 1005 hPa
Clouds: Meestal bewolkt
Visibility: 10 km
Cloud details: Meestal bewolkt 1067 m
Meestal bewolkt 1402 m
2020/07/07 15:20 ESGT 071520Z AUTO 23020KT 9999 R15/P2000N R33///// BKN035/// BKN046/// 14/04 Q1005
ESGG - Goteborg/Landvet, Sweden
Distance from station: O 257km
Updated: 07/07/2020 17:20
Meestal bewolkt
Meestal bewolkt
 Wind van ZW
Wind: ZW 33 km/h
Temperatuur: 12°C
Dauwpunt: 7°C
Vochtigheid: 72%
Barometer: 1007 hPa
Clouds: Meestal bewolkt
Visibility: 10 km
Cloud details: Meestal bewolkt 823 m
2020/07/07 15:20 ESGG 071520Z 23018KT 9999 BKN027 12/07 Q1007
 
EKBI - Billund Airport, Denmark
Distance from station: ZZO 269km
Updated: 07/07/2020 17:20
Meestal bewolkt
Meestal bewolkt
 Wind van W
Wind: W 22 km/h
Temperatuur: 14°C
Dauwpunt: 9°C
Vochtigheid: 72%
Barometer: 1012 hPa
Clouds: Meestal bewolkt
Visibility: 10 km
Cloud details: Meestal bewolkt 823 m
Meestal bewolkt 2073 m
2020/07/07 15:20 EKBI 071520Z AUTO 26012KT 9999 BKN027/// BKN068/// 14/09 Q1012
EKHN - Horns Rev B Heli, Denmark
Distance from station: Z 274km
Updated: 09/08/2016 14:20
NOT Current
Few Clouds
Few Clouds
 Wind van WNW
Wind: WNW 50 km/h, Windvlaag: 72 km/h
Temperatuur: 14°C
Dauwpunt: 10°C
Vochtigheid: 77%
Barometer: 1018 hPa
Clouds: Few Clouds
Visibility: 10 km
Cloud details: Few Clouds 1158 m
Few Clouds 2438 m
2016/08/09 12:20 EKHN 091220Z AUTO 29027G39KT 270V340 9999NDV FEW038/// FEW080/// 14/10 Q1018
 
ESIB - Satenas (swe-Afb, Sweden
Distance from station: O 277km
Updated: 07/07/2020 17:20
Meestal bewolkt
Meestal bewolkt
 Wind van WZW
Wind: WZW 37 km/h
Temperatuur: 14°C
Dauwpunt: 7°C
Vochtigheid: 63%
Barometer: 1005 hPa
Clouds: Meestal bewolkt
Visibility: 10 km
Cloud details: Few Clouds 1311 m
Gedeeltelijk bewolkt 1829 m
Meestal bewolkt 4267 m
2020/07/07 15:20 ESIB 071520Z AUTO 24020KT 9999 FEW043/// SCT060/// BKN140/// 14/07 Q1005
EKHR - Horns Rev B Heli, Denmark
Distance from station: Z 282km
Updated: 04/10/2016 06:20
NOT Current
Helder
Helder
 Wind van O
Wind: O 4 km/h
Temperatuur: 11°C
Dauwpunt: -49°C
Vochtigheid: 0%
Barometer: 1038 hPa
Clouds: Helder
Visibility: 10 km
2016/10/04 04:20 EKHR 040420Z AUTO 08002KT 9999NDV NCD 11/M49 Q1038